sensor_id;sensor_type;location;lat;lon;timestamp;P1;durP1;ratioP1;P2;durP2;ratioP2
29218;SDS011;16421;50.202;7.852;2024-03-23T00:56:19;7.43;;;4.70;;
29218;SDS011;16421;50.202;7.852;2024-03-23T01:01:21;10.73;;;5.13;;
29218;SDS011;16421;50.202;7.852;2024-03-23T01:06:24;6.38;;;4.50;;
29218;SDS011;16421;50.202;7.852;2024-03-23T01:11:28;6.35;;;4.03;;
29218;SDS011;16421;50.202;7.852;2024-03-23T01:16:30;6.30;;;4.40;;
29218;SDS011;16421;50.202;7.852;2024-03-23T01:21:32;9.68;;;5.40;;
29218;SDS011;16421;50.202;7.852;2024-03-23T01:26:36;7.72;;;5.38;;
29218;SDS011;16421;50.202;7.852;2024-03-23T01:31:39;8.80;;;5.65;;
29218;SDS011;16421;50.202;7.852;2024-03-23T01:36:41;9.80;;;6.10;;
29218;SDS011;16421;50.202;7.852;2024-03-23T01:41:45;9.57;;;5.93;;
29218;SDS011;16421;50.202;7.852;2024-03-23T01:46:47;10.73;;;7.05;;
29218;SDS011;16421;50.202;7.852;2024-03-23T01:51:50;11.68;;;6.95;;
29218;SDS011;16421;50.202;7.852;2024-03-23T01:56:54;10.63;;;6.78;;
29218;SDS011;16421;50.202;7.852;2024-03-23T02:01:57;8.98;;;6.50;;
29218;SDS011;16421;50.202;7.852;2024-03-23T02:06:59;8.32;;;5.90;;
29218;SDS011;16421;50.202;7.852;2024-03-23T02:12:03;9.27;;;5.82;;
29218;SDS011;16421;50.202;7.852;2024-03-23T02:17:05;9.77;;;6.20;;
29218;SDS011;16421;50.202;7.852;2024-03-23T02:22:08;10.45;;;6.35;;
29218;SDS011;16421;50.202;7.852;2024-03-23T02:27:13;9.80;;;5.72;;
29218;SDS011;16421;50.202;7.852;2024-03-23T02:32:15;10.45;;;6.13;;
29218;SDS011;16421;50.202;7.852;2024-03-23T02:37:18;12.23;;;7.07;;
29218;SDS011;16421;50.202;7.852;2024-03-23T02:42:21;11.55;;;7.65;;
29218;SDS011;16421;50.202;7.852;2024-03-23T02:47:23;11.07;;;7.80;;
29218;SDS011;16421;50.202;7.852;2024-03-23T02:52:26;10.68;;;7.22;;
29218;SDS011;16421;50.202;7.852;2024-03-23T02:57:30;6.00;;;4.05;;
29218;SDS011;16421;50.202;7.852;2024-03-23T03:02:32;4.80;;;2.60;;
29218;SDS011;16421;50.202;7.852;2024-03-23T03:07:34;2.33;;;2.08;;
29218;SDS011;16421;50.202;7.852;2024-03-23T03:12:40;1.92;;;1.70;;
29218;SDS011;16421;50.202;7.852;2024-03-23T03:17:43;1.63;;;1.30;;
29218;SDS011;16421;50.202;7.852;2024-03-23T03:22:46;2.60;;;1.60;;
29218;SDS011;16421;50.202;7.852;2024-03-23T03:27:50;1.25;;;1.10;;
29218;SDS011;16421;50.202;7.852;2024-03-23T03:32:53;1.30;;;1.20;;
29218;SDS011;16421;50.202;7.852;2024-03-23T03:37:55;2.00;;;1.45;;
29218;SDS011;16421;50.202;7.852;2024-03-23T03:42:59;1.92;;;1.30;;
29218;SDS011;16421;50.202;7.852;2024-03-23T03:48:01;1.25;;;1.00;;
29218;SDS011;16421;50.202;7.852;2024-03-23T03:53:04;2.20;;;1.10;;
29218;SDS011;16421;50.202;7.852;2024-03-23T03:58:08;1.73;;;1.10;;
29218;SDS011;16421;50.202;7.852;2024-03-23T04:03:10;3.58;;;1.90;;
29218;SDS011;16421;50.202;7.852;2024-03-23T04:08:12;2.00;;;1.70;;
29218;SDS011;16421;50.202;7.852;2024-03-23T04:13:16;2.40;;;1.40;;
29218;SDS011;16421;50.202;7.852;2024-03-23T04:18:18;1.63;;;1.35;;
29218;SDS011;16421;50.202;7.852;2024-03-23T04:23:21;2.33;;;1.70;;
29218;SDS011;16421;50.202;7.852;2024-03-23T04:28:25;3.08;;;1.88;;
29218;SDS011;16421;50.202;7.852;2024-03-23T04:33:27;2.50;;;2.10;;
29218;SDS011;16421;50.202;7.852;2024-03-23T04:38:29;3.80;;;2.38;;
29218;SDS011;16421;50.202;7.852;2024-03-23T04:43:33;3.00;;;2.30;;
29218;SDS011;16421;50.202;7.852;2024-03-23T04:48:35;3.50;;;2.85;;
29218;SDS011;16421;50.202;7.852;2024-03-23T04:53:38;2.85;;;1.80;;
29218;SDS011;16421;50.202;7.852;2024-03-23T04:58:42;1.73;;;1.30;;
29218;SDS011;16421;50.202;7.852;2024-03-23T05:03:45;1.42;;;1.23;;
29218;SDS011;16421;50.202;7.852;2024-03-23T05:08:49;3.13;;;1.10;;
29218;SDS011;16421;50.202;7.852;2024-03-23T05:13:52;2.38;;;1.20;;
29218;SDS011;16421;50.202;7.852;2024-03-23T05:18:55;2.72;;;1.20;;
29218;SDS011;16421;50.202;7.852;2024-03-23T05:23:57;2.70;;;1.42;;
29218;SDS011;16421;50.202;7.852;2024-03-23T05:29:01;1.88;;;1.30;;
29218;SDS011;16421;50.202;7.852;2024-03-23T05:34:03;1.13;;;1.00;;
29218;SDS011;16421;50.202;7.852;2024-03-23T05:39:06;2.80;;;1.55;;
29218;SDS011;16421;50.202;7.852;2024-03-23T05:44:09;1.50;;;1.40;;
29218;SDS011;16421;50.202;7.852;2024-03-23T05:49:12;1.25;;;0.90;;
29218;SDS011;16421;50.202;7.852;2024-03-23T05:54:14;2.05;;;1.30;;
29218;SDS011;16421;50.202;7.852;2024-03-23T05:59:18;3.72;;;1.50;;
29218;SDS011;16421;50.202;7.852;2024-03-23T06:04:20;1.67;;;1.20;;
29218;SDS011;16421;50.202;7.852;2024-03-23T06:09:23;3.35;;;2.13;;
29218;SDS011;16421;50.202;7.852;2024-03-23T06:14:27;1.88;;;1.60;;
29218;SDS011;16421;50.202;7.852;2024-03-23T06:19:29;5.57;;;2.00;;
29218;SDS011;16421;50.202;7.852;2024-03-23T06:24:31;4.68;;;2.35;;
29218;SDS011;16421;50.202;7.852;2024-03-23T06:29:35;2.17;;;1.33;;
29218;SDS011;16421;50.202;7.852;2024-03-23T06:34:37;3.38;;;1.58;;
29218;SDS011;16421;50.202;7.852;2024-03-23T06:39:42;5.78;;;2.05;;
29218;SDS011;16421;50.202;7.852;2024-03-23T06:44:48;3.33;;;1.77;;
29218;SDS011;16421;50.202;7.852;2024-03-23T06:49:50;8.25;;;1.90;;
29218;SDS011;16421;50.202;7.852;2024-03-23T06:54:53;3.63;;;1.73;;
29218;SDS011;16421;50.202;7.852;2024-03-23T06:59:56;7.47;;;3.13;;
29218;SDS011;16421;50.202;7.852;2024-03-23T07:04:59;7.75;;;3.20;;
29218;SDS011;16421;50.202;7.852;2024-03-23T07:10:01;5.45;;;2.60;;
29218;SDS011;16421;50.202;7.852;2024-03-23T07:15:06;11.07;;;4.55;;
29218;SDS011;16421;50.202;7.852;2024-03-23T07:20:09;6.82;;;3.45;;
29218;SDS011;16421;50.202;7.852;2024-03-23T07:25:13;4.38;;;2.40;;
29218;SDS011;16421;50.202;7.852;2024-03-23T07:30:17;7.07;;;3.58;;
29218;SDS011;16421;50.202;7.852;2024-03-23T07:35:19;5.45;;;2.80;;
29218;SDS011;16421;50.202;7.852;2024-03-23T07:40:21;2.88;;;2.08;;
29218;SDS011;16421;50.202;7.852;2024-03-23T07:45:25;9.80;;;3.40;;
29218;SDS011;16421;50.202;7.852;2024-03-23T07:50:28;7.57;;;3.00;;
29218;SDS011;16421;50.202;7.852;2024-03-23T07:55:30;8.30;;;2.95;;
29218;SDS011;16421;50.202;7.852;2024-03-23T08:00:34;3.67;;;2.28;;
29218;SDS011;16421;50.202;7.852;2024-03-23T08:05:36;5.38;;;2.78;;
29218;SDS011;16421;50.202;7.852;2024-03-23T08:10:46;6.68;;;2.72;;
29218;SDS011;16421;50.202;7.852;2024-03-23T08:15:51;8.10;;;3.00;;
29218;SDS011;16421;50.202;7.852;2024-03-23T08:20:57;9.10;;;3.60;;
29218;SDS011;16421;50.202;7.852;2024-03-23T08:26:00;5.75;;;2.83;;
29218;SDS011;16421;50.202;7.852;2024-03-23T08:31:06;8.93;;;3.88;;
29218;SDS011;16421;50.202;7.852;2024-03-23T08:36:09;10.65;;;3.25;;
29218;SDS011;16421;50.202;7.852;2024-03-23T08:41:14;12.27;;;3.80;;
29218;SDS011;16421;50.202;7.852;2024-03-23T08:46:18;9.07;;;3.38;;
29218;SDS011;16421;50.202;7.852;2024-03-23T08:51:20;10.40;;;3.30;;
29218;SDS011;16421;50.202;7.852;2024-03-23T08:56:22;10.82;;;3.70;;
29218;SDS011;16421;50.202;7.852;2024-03-23T09:01:26;8.73;;;3.17;;
29218;SDS011;16421;50.202;7.852;2024-03-23T09:06:28;11.13;;;3.13;;
29218;SDS011;16421;50.202;7.852;2024-03-23T09:11:31;10.32;;;3.33;;
29218;SDS011;16421;50.202;7.852;2024-03-23T09:16:35;10.98;;;3.10;;
29218;SDS011;16421;50.202;7.852;2024-03-23T09:21:37;10.95;;;3.22;;
29218;SDS011;16421;50.202;7.852;2024-03-23T09:26:39;8.23;;;2.90;;
29218;SDS011;16421;50.202;7.852;2024-03-23T09:31:43;11.50;;;2.95;;
29218;SDS011;16421;50.202;7.852;2024-03-23T09:36:46;7.80;;;2.88;;
29218;SDS011;16421;50.202;7.852;2024-03-23T09:41:48;8.70;;;2.90;;
29218;SDS011;16421;50.202;7.852;2024-03-23T09:46:52;10.05;;;3.67;;
29218;SDS011;16421;50.202;7.852;2024-03-23T09:51:55;5.85;;;2.20;;
29218;SDS011;16421;50.202;7.852;2024-03-23T09:56:58;7.53;;;2.03;;
29218;SDS011;16421;50.202;7.852;2024-03-23T10:02:02;3.78;;;2.03;;
29218;SDS011;16421;50.202;7.852;2024-03-23T10:07:11;4.90;;;1.65;;
29218;SDS011;16421;50.202;7.852;2024-03-23T10:12:17;7.22;;;2.22;;
29218;SDS011;16421;50.202;7.852;2024-03-23T10:17:22;5.68;;;2.30;;
29218;SDS011;16421;50.202;7.852;2024-03-23T10:22:25;10.98;;;3.05;;
29218;SDS011;16421;50.202;7.852;2024-03-23T10:27:27;9.48;;;3.45;;
29218;SDS011;16421;50.202;7.852;2024-03-23T10:32:31;7.13;;;2.70;;
29218;SDS011;16421;50.202;7.852;2024-03-23T10:37:33;6.22;;;2.95;;
29218;SDS011;16421;50.202;7.852;2024-03-23T10:42:36;8.07;;;2.90;;
29218;SDS011;16421;50.202;7.852;2024-03-23T10:47:40;8.98;;;3.65;;
29218;SDS011;16421;50.202;7.852;2024-03-23T10:52:47;8.68;;;3.05;;
29218;SDS011;16421;50.202;7.852;2024-03-23T10:57:50;9.77;;;3.47;;
29218;SDS011;16421;50.202;7.852;2024-03-23T11:02:56;6.63;;;2.60;;
29218;SDS011;16421;50.202;7.852;2024-03-23T11:07:59;7.18;;;2.70;;
29218;SDS011;16421;50.202;7.852;2024-03-23T11:13:21;8.18;;;3.20;;
29218;SDS011;16421;50.202;7.852;2024-03-23T11:18:25;8.07;;;3.50;;
29218;SDS011;16421;50.202;7.852;2024-03-23T11:23:27;8.57;;;2.92;;
29218;SDS011;16421;50.202;7.852;2024-03-23T11:28:30;8.73;;;2.97;;
29218;SDS011;16421;50.202;7.852;2024-03-23T11:33:34;7.88;;;3.03;;
29218;SDS011;16421;50.202;7.852;2024-03-23T11:38:36;6.50;;;2.30;;
29218;SDS011;16421;50.202;7.852;2024-03-23T11:43:38;5.28;;;2.40;;
29218;SDS011;16421;50.202;7.852;2024-03-23T11:48:49;3.35;;;2.08;;
29218;SDS011;16421;50.202;7.852;2024-03-23T11:53:51;4.35;;;2.10;;
29218;SDS011;16421;50.202;7.852;2024-03-23T11:58:53;4.53;;;2.22;;
29218;SDS011;16421;50.202;7.852;2024-03-23T12:03:57;3.22;;;1.63;;
29218;SDS011;16421;50.202;7.852;2024-03-23T12:09:05;6.72;;;2.47;;
29218;SDS011;16421;50.202;7.852;2024-03-23T12:14:07;4.70;;;1.77;;
29218;SDS011;16421;50.202;7.852;2024-03-23T12:19:11;5.47;;;1.88;;
29218;SDS011;16421;50.202;7.852;2024-03-23T12:24:13;7.18;;;1.40;;
29218;SDS011;16421;50.202;7.852;2024-03-23T12:29:16;3.63;;;1.30;;
29218;SDS011;16421;50.202;7.852;2024-03-23T12:34:20;1.38;;;0.98;;
29218;SDS011;16421;50.202;7.852;2024-03-23T12:39:23;2.88;;;1.30;;
29218;SDS011;16421;50.202;7.852;2024-03-23T12:44:25;3.40;;;1.17;;
29218;SDS011;16421;50.202;7.852;2024-03-23T12:49:28;0.60;;;0.60;;
29218;SDS011;16421;50.202;7.852;2024-03-23T12:54:31;0.98;;;0.50;;
29218;SDS011;16421;50.202;7.852;2024-03-23T12:59:33;1.13;;;0.70;;
29218;SDS011;16421;50.202;7.852;2024-03-23T13:04:38;1.20;;;0.65;;
29218;SDS011;16421;50.202;7.852;2024-03-23T13:09:40;1.45;;;0.60;;
29218;SDS011;16421;50.202;7.852;2024-03-23T13:14:42;1.90;;;0.73;;
29218;SDS011;16421;50.202;7.852;2024-03-23T13:19:46;1.45;;;0.70;;
29218;SDS011;16421;50.202;7.852;2024-03-23T13:24:49;1.60;;;0.60;;
29218;SDS011;16421;50.202;7.852;2024-03-23T13:29:51;1.60;;;0.60;;
29218;SDS011;16421;50.202;7.852;2024-03-23T13:34:55;1.35;;;0.60;;
29218;SDS011;16421;50.202;7.852;2024-03-23T13:39:57;0.88;;;0.47;;
29218;SDS011;16421;50.202;7.852;2024-03-23T13:44:59;1.17;;;0.50;;
29218;SDS011;16421;50.202;7.852;2024-03-23T13:50:03;0.93;;;0.60;;
29218;SDS011;16421;50.202;7.852;2024-03-23T13:55:07;1.43;;;0.70;;
29218;SDS011;16421;50.202;7.852;2024-03-23T14:00:12;1.88;;;0.68;;
29218;SDS011;16421;50.202;7.852;2024-03-23T14:05:17;1.98;;;1.15;;
29218;SDS011;16421;50.202;7.852;2024-03-23T14:10:19;2.05;;;0.80;;
29218;SDS011;16421;50.202;7.852;2024-03-23T14:15:22;3.05;;;0.80;;
29218;SDS011;16421;50.202;7.852;2024-03-23T14:20:25;1.50;;;0.70;;
29218;SDS011;16421;50.202;7.852;2024-03-23T14:25:28;2.67;;;0.82;;
29218;SDS011;16421;50.202;7.852;2024-03-23T14:30:30;1.83;;;0.93;;
29218;SDS011;16421;50.202;7.852;2024-03-23T14:35:34;3.88;;;1.20;;
29218;SDS011;16421;50.202;7.852;2024-03-23T14:40:37;3.50;;;0.80;;
29218;SDS011;16421;50.202;7.852;2024-03-23T14:45:45;2.97;;;0.85;;
29218;SDS011;16421;50.202;7.852;2024-03-23T14:56:09;2.92;;;0.70;;
29218;SDS011;16421;50.202;7.852;2024-03-23T15:01:13;5.88;;;1.00;;
29218;SDS011;16421;50.202;7.852;2024-03-23T15:06:17;2.92;;;0.90;;
29218;SDS011;16421;50.202;7.852;2024-03-23T15:11:20;2.97;;;0.60;;
29218;SDS011;16421;50.202;7.852;2024-03-23T15:16:22;2.45;;;0.98;;
29218;SDS011;16421;50.202;7.852;2024-03-23T15:21:27;2.13;;;0.90;;
29218;SDS011;16421;50.202;7.852;2024-03-23T15:26:29;3.95;;;0.95;;
29218;SDS011;16421;50.202;7.852;2024-03-23T15:31:31;2.40;;;0.70;;
29218;SDS011;16421;50.202;7.852;2024-03-23T15:36:35;1.55;;;0.70;;
29218;SDS011;16421;50.202;7.852;2024-03-23T15:41:38;0.75;;;0.60;;
29218;SDS011;16421;50.202;7.852;2024-03-23T15:46:41;1.45;;;0.63;;
29218;SDS011;16421;50.202;7.852;2024-03-23T15:51:44;1.15;;;0.70;;
29218;SDS011;16421;50.202;7.852;2024-03-23T15:56:47;3.20;;;1.00;;
29218;SDS011;16421;50.202;7.852;2024-03-23T16:01:49;4.45;;;0.98;;
29218;SDS011;16421;50.202;7.852;2024-03-23T16:06:53;2.58;;;0.90;;
29218;SDS011;16421;50.202;7.852;2024-03-23T16:11:55;0.70;;;0.70;;
29218;SDS011;16421;50.202;7.852;2024-03-23T16:16:57;2.28;;;0.90;;
29218;SDS011;16421;50.202;7.852;2024-03-23T16:22:01;1.40;;;0.80;;
29218;SDS011;16421;50.202;7.852;2024-03-23T16:27:04;0.85;;;0.70;;
29218;SDS011;16421;50.202;7.852;2024-03-23T16:32:06;1.67;;;0.90;;
29218;SDS011;16421;50.202;7.852;2024-03-23T16:37:09;3.63;;;1.02;;
29218;SDS011;16421;50.202;7.852;2024-03-23T16:42:12;0.50;;;0.50;;
29218;SDS011;16421;50.202;7.852;2024-03-23T16:47:14;2.58;;;1.08;;
29218;SDS011;16421;50.202;7.852;2024-03-23T16:52:18;1.73;;;0.93;;
29218;SDS011;16421;50.202;7.852;2024-03-23T16:57:20;2.38;;;0.68;;
29218;SDS011;16421;50.202;7.852;2024-03-23T17:02:23;0.75;;;0.63;;
29218;SDS011;16421;50.202;7.852;2024-03-23T17:07:26;0.40;;;0.40;;
29218;SDS011;16421;50.202;7.852;2024-03-23T17:12:28;0.85;;;0.50;;
29218;SDS011;16421;50.202;7.852;2024-03-23T17:17:31;0.88;;;0.57;;
29218;SDS011;16421;50.202;7.852;2024-03-23T17:22:34;0.77;;;0.70;;
29218;SDS011;16421;50.202;7.852;2024-03-23T17:27:37;1.48;;;1.20;;
29218;SDS011;16421;50.202;7.852;2024-03-23T17:32:40;2.72;;;1.60;;
29218;SDS011;16421;50.202;7.852;2024-03-23T17:37:44;2.90;;;1.65;;
29218;SDS011;16421;50.202;7.852;2024-03-23T17:42:46;3.75;;;1.98;;
29218;SDS011;16421;50.202;7.852;2024-03-23T17:47:49;1.48;;;1.17;;
29218;SDS011;16421;50.202;7.852;2024-03-23T17:52:53;2.78;;;1.05;;
29218;SDS011;16421;50.202;7.852;2024-03-23T17:57:56;1.75;;;0.90;;
29218;SDS011;16421;50.202;7.852;2024-03-23T18:03:01;3.35;;;1.13;;
29218;SDS011;16421;50.202;7.852;2024-03-23T18:08:06;0.88;;;0.80;;
29218;SDS011;16421;50.202;7.852;2024-03-23T18:13:09;3.20;;;1.13;;
29218;SDS011;16421;50.202;7.852;2024-03-23T18:18:11;1.98;;;0.80;;
29218;SDS011;16421;50.202;7.852;2024-03-23T18:23:15;1.00;;;0.80;;
29218;SDS011;16421;50.202;7.852;2024-03-23T18:28:18;0.70;;;0.50;;
29218;SDS011;16421;50.202;7.852;2024-03-23T18:33:20;1.50;;;0.52;;
29218;SDS011;16421;50.202;7.852;2024-03-23T18:38:24;1.17;;;0.95;;
29218;SDS011;16421;50.202;7.852;2024-03-23T18:43:27;1.05;;;0.93;;
29218;SDS011;16421;50.202;7.852;2024-03-23T18:48:29;1.15;;;0.65;;
29218;SDS011;16421;50.202;7.852;2024-03-23T18:53:33;1.08;;;0.60;;
29218;SDS011;16421;50.202;7.852;2024-03-23T18:58:36;1.27;;;0.77;;
29218;SDS011;16421;50.202;7.852;2024-03-23T19:03:38;1.55;;;1.02;;
29218;SDS011;16421;50.202;7.852;2024-03-23T19:08:42;1.35;;;0.90;;
29218;SDS011;16421;50.202;7.852;2024-03-23T19:13:44;0.65;;;0.50;;
29218;SDS011;16421;50.202;7.852;2024-03-23T19:18:47;0.70;;;0.63;;
29218;SDS011;16421;50.202;7.852;2024-03-23T19:23:51;0.57;;;0.50;;
29218;SDS011;16421;50.202;7.852;2024-03-23T19:28:53;0.40;;;0.38;;
29218;SDS011;16421;50.202;7.852;2024-03-23T19:33:55;0.57;;;0.57;;
29218;SDS011;16421;50.202;7.852;2024-03-23T19:39:00;0.80;;;0.50;;
29218;SDS011;16421;50.202;7.852;2024-03-23T19:44:03;0.60;;;0.60;;
29218;SDS011;16421;50.202;7.852;2024-03-23T19:49:06;0.90;;;0.70;;
29218;SDS011;16421;50.202;7.852;2024-03-23T19:54:09;0.70;;;0.70;;
29218;SDS011;16421;50.202;7.852;2024-03-23T19:59:12;0.90;;;0.75;;
29218;SDS011;16421;50.202;7.852;2024-03-23T20:04:14;0.50;;;0.50;;
29218;SDS011;16421;50.202;7.852;2024-03-23T20:09:18;1.25;;;0.85;;
29218;SDS011;16421;50.202;7.852;2024-03-23T20:14:21;1.48;;;0.98;;
29218;SDS011;16421;50.202;7.852;2024-03-23T20:19:25;2.28;;;1.40;;
29218;SDS011;16421;50.202;7.852;2024-03-23T20:24:29;2.15;;;1.08;;
29218;SDS011;16421;50.202;7.852;2024-03-23T20:29:32;2.22;;;1.20;;
29218;SDS011;16421;50.202;7.852;2024-03-23T20:34:34;2.08;;;1.30;;
29218;SDS011;16421;50.202;7.852;2024-03-23T20:39:38;2.05;;;1.10;;
29218;SDS011;16421;50.202;7.852;2024-03-23T20:44:41;0.88;;;0.70;;
29218;SDS011;16421;50.202;7.852;2024-03-23T20:49:43;2.22;;;0.88;;
29218;SDS011;16421;50.202;7.852;2024-03-23T20:54:47;0.85;;;0.60;;
29218;SDS011;16421;50.202;7.852;2024-03-23T20:59:50;1.33;;;0.60;;
29218;SDS011;16421;50.202;7.852;2024-03-23T21:04:52;2.72;;;0.85;;
29218;SDS011;16421;50.202;7.852;2024-03-23T21:09:56;0.50;;;0.50;;
29218;SDS011;16421;50.202;7.852;2024-03-23T21:14:58;0.70;;;0.60;;
29218;SDS011;16421;50.202;7.852;2024-03-23T21:20:01;1.23;;;0.43;;
29218;SDS011;16421;50.202;7.852;2024-03-23T21:25:07;1.35;;;0.65;;
29218;SDS011;16421;50.202;7.852;2024-03-23T21:30:10;0.52;;;0.52;;
29218;SDS011;16421;50.202;7.852;2024-03-23T21:35:14;1.00;;;0.50;;
29218;SDS011;16421;50.202;7.852;2024-03-23T21:40:18;0.60;;;0.50;;
29218;SDS011;16421;50.202;7.852;2024-03-23T21:45:21;1.30;;;0.63;;
29218;SDS011;16421;50.202;7.852;2024-03-23T21:50:25;1.85;;;0.60;;
29218;SDS011;16421;50.202;7.852;2024-03-23T21:55:29;1.08;;;0.93;;
29218;SDS011;16421;50.202;7.852;2024-03-23T22:00:31;1.10;;;0.73;;
29218;SDS011;16421;50.202;7.852;2024-03-23T22:05:34;1.20;;;0.63;;
29218;SDS011;16421;50.202;7.852;2024-03-23T22:10:37;0.90;;;0.80;;
29218;SDS011;16421;50.202;7.852;2024-03-23T22:15:45;1.25;;;0.70;;
29218;SDS011;16421;50.202;7.852;2024-03-23T22:20:54;1.05;;;0.60;;
29218;SDS011;16421;50.202;7.852;2024-03-23T22:25:59;2.03;;;0.90;;
29218;SDS011;16421;50.202;7.852;2024-03-23T22:31:02;2.10;;;0.80;;
29218;SDS011;16421;50.202;7.852;2024-03-23T22:36:06;2.10;;;0.80;;
29218;SDS011;16421;50.202;7.852;2024-03-23T22:41:10;1.85;;;0.80;;
29218;SDS011;16421;50.202;7.852;2024-03-23T22:46:12;1.17;;;0.90;;
29218;SDS011;16421;50.202;7.852;2024-03-23T22:51:14;1.95;;;0.95;;
29218;SDS011;16421;50.202;7.852;2024-03-23T22:56:18;1.48;;;0.80;;
29218;SDS011;16421;50.202;7.852;2024-03-23T23:01:21;1.58;;;0.85;;
29218;SDS011;16421;50.202;7.852;2024-03-23T23:06:23;1.50;;;0.77;;
29218;SDS011;16421;50.202;7.852;2024-03-23T23:11:27;1.15;;;0.70;;
29218;SDS011;16421;50.202;7.852;2024-03-23T23:16:30;4.10;;;0.90;;
29218;SDS011;16421;50.202;7.852;2024-03-23T23:21:33;0.82;;;0.70;;
29218;SDS011;16421;50.202;7.852;2024-03-23T23:26:36;0.70;;;0.70;;
29218;SDS011;16421;50.202;7.852;2024-03-23T23:31:39;1.20;;;0.60;;
29218;SDS011;16421;50.202;7.852;2024-03-23T23:36:47;1.02;;;0.68;;
29218;SDS011;16421;50.202;7.852;2024-03-23T23:41:51;1.73;;;0.80;;
29218;SDS011;16421;50.202;7.852;2024-03-23T23:46:54;1.10;;;0.60;;
29218;SDS011;16421;50.202;7.852;2024-03-23T23:52:00;1.90;;;1.00;;
29218;SDS011;16421;50.202;7.852;2024-03-23T23:57:05;0.50;;;0.50;;
